sensor_id;sensor_type;location;lat;lon;timestamp;pressure;altitude;pressure_sealevel;temperature;humidity
50364;BME280;36272;59.400;17.982;2023-02-24T00:00:19;99963.66;;;1.83;93.04
50364;BME280;36272;59.400;17.982;2023-02-24T00:05:35;99949.47;;;1.84;92.80
50364;BME280;36272;59.400;17.982;2023-02-24T00:10:39;99948.56;;;1.76;92.99
50364;BME280;36272;59.400;17.982;2023-02-24T00:15:40;99942.47;;;1.76;93.06
50364;BME280;36272;59.400;17.982;2023-02-24T00:20:42;99922.44;;;1.82;92.99
50364;BME280;36272;59.400;17.982;2023-02-24T00:25:43;99916.53;;;1.80;92.77
50364;BME280;36272;59.400;17.982;2023-02-24T00:30:45;99906.00;;;1.80;92.78
50364;BME280;36272;59.400;17.982;2023-02-24T00:35:47;99896.72;;;1.84;92.84
50364;BME280;36272;59.400;17.982;2023-02-24T00:40:49;99891.16;;;1.78;92.78
50364;BME280;36272;59.400;17.982;2023-02-24T00:45:51;99892.16;;;1.77;93.01
50364;BME280;36272;59.400;17.982;2023-02-24T00:50:59;99869.50;;;1.83;93.25
50364;BME280;36272;59.400;17.982;2023-02-24T00:56:01;99871.13;;;1.84;92.88
50364;BME280;36272;59.400;17.982;2023-02-24T01:01:03;99868.34;;;1.86;92.83
50364;BME280;36272;59.400;17.982;2023-02-24T01:11:19;99848.50;;;1.90;92.79
50364;BME280;36272;59.400;17.982;2023-02-24T01:16:41;99840.84;;;1.95;92.68
50364;BME280;36272;59.400;17.982;2023-02-24T01:21:45;99831.94;;;1.96;92.63
50364;BME280;36272;59.400;17.982;2023-02-24T01:26:47;99831.03;;;1.89;92.75
50364;BME280;36272;59.400;17.982;2023-02-24T01:31:49;99834.56;;;1.96;92.61
50364;BME280;36272;59.400;17.982;2023-02-24T01:36:57;99826.81;;;1.95;92.70
50364;BME280;36272;59.400;17.982;2023-02-24T01:41:59;99821.28;;;1.89;92.43
50364;BME280;36272;59.400;17.982;2023-02-24T01:47:02;99813.13;;;1.84;92.51
50364;BME280;36272;59.400;17.982;2023-02-24T01:52:38;99814.06;;;1.76;92.77
50364;BME280;36272;59.400;17.982;2023-02-24T01:57:34;99798.22;;;1.76;92.74
50364;BME280;36272;59.400;17.982;2023-02-24T02:02:38;99787.69;;;1.76;92.45
50364;BME280;36272;59.400;17.982;2023-02-24T02:07:42;99785.25;;;1.97;93.03
50364;BME280;36272;59.400;17.982;2023-02-24T02:12:45;99788.69;;;1.75;92.25
50364;BME280;36272;59.400;17.982;2023-02-24T02:18:10;99777.78;;;1.78;93.02
50364;BME280;36272;59.400;17.982;2023-02-24T02:34:18;99750.44;;;1.86;92.97
50364;BME280;36272;59.400;17.982;2023-02-24T02:45:17;99743.38;;;1.87;92.64
50364;BME280;36272;59.400;17.982;2023-02-24T02:50:40;99736.50;;;1.92;93.21
50364;BME280;36272;59.400;17.982;2023-02-24T02:55:50;99727.59;;;1.93;92.56
50364;BME280;36272;59.400;17.982;2023-02-24T03:01:00;99722.16;;;1.95;92.80
50364;BME280;36272;59.400;17.982;2023-02-24T04:23:05;99647.22;;;1.89;92.29
50364;BME280;36272;59.400;17.982;2023-02-24T04:28:16;99642.53;;;1.85;92.41
50364;BME280;36272;59.400;17.982;2023-02-24T04:33:22;99646.53;;;1.81;92.47
50364;BME280;36272;59.400;17.982;2023-02-24T04:38:24;99640.25;;;1.82;92.40
50364;BME280;36272;59.400;17.982;2023-02-24T04:43:26;99640.25;;;1.82;92.30
50364;BME280;36272;59.400;17.982;2023-02-24T04:48:27;99638.69;;;1.87;92.21
50364;BME280;36272;59.400;17.982;2023-02-24T04:53:30;99642.94;;;1.88;91.96
50364;BME280;36272;59.400;17.982;2023-02-24T04:58:32;99626.84;;;1.76;91.74
50364;BME280;36272;59.400;17.982;2023-02-24T05:03:34;99625.19;;;1.75;92.15
50364;BME280;36272;59.400;17.982;2023-02-24T05:08:36;99632.34;;;1.82;92.14
50364;BME280;36272;59.400;17.982;2023-02-24T05:13:38;99619.78;;;1.84;91.97
50364;BME280;36272;59.400;17.982;2023-02-24T05:18:41;99618.34;;;1.81;92.14
50364;BME280;36272;59.400;17.982;2023-02-24T05:23:45;99611.44;;;1.80;92.08
50364;BME280;36272;59.400;17.982;2023-02-24T05:28:48;99607.16;;;1.79;92.12
50364;BME280;36272;59.400;17.982;2023-02-24T05:33:57;99592.81;;;1.82;91.77
50364;BME280;36272;59.400;17.982;2023-02-24T05:38:59;99600.88;;;1.80;91.89
50364;BME280;36272;59.400;17.982;2023-02-24T05:44:11;99586.69;;;1.81;91.93
50364;BME280;36272;59.400;17.982;2023-02-24T05:49:14;99582.56;;;2.00;92.39
50364;BME280;36272;59.400;17.982;2023-02-24T05:54:16;99596.06;;;1.84;91.80
50364;BME280;36272;59.400;17.982;2023-02-24T05:59:18;99594.38;;;1.76;91.80
50364;BME280;36272;59.400;17.982;2023-02-24T06:04:21;99585.66;;;1.75;91.85
50364;BME280;36272;59.400;17.982;2023-02-24T06:09:40;99574.09;;;1.76;91.95
50364;BME280;36272;59.400;17.982;2023-02-24T06:14:45;99576.09;;;1.74;91.94
50364;BME280;36272;59.400;17.982;2023-02-24T06:19:49;99560.91;;;1.76;91.64
50364;BME280;36272;59.400;17.982;2023-02-24T06:24:52;99560.28;;;1.74;91.67
50364;BME280;36272;59.400;17.982;2023-02-24T06:29:54;99551.63;;;1.81;91.54
50364;BME280;36272;59.400;17.982;2023-02-24T06:34:57;99560.31;;;1.81;91.61
50364;BME280;36272;59.400;17.982;2023-02-24T06:39:59;99556.88;;;1.81;91.47
50364;BME280;36272;59.400;17.982;2023-02-24T06:45:01;99555.63;;;1.76;91.04
50364;BME280;36272;59.400;17.982;2023-02-24T06:50:04;99556.03;;;1.73;91.43
50364;BME280;36272;59.400;17.982;2023-02-24T06:55:08;99549.94;;;1.73;91.41
50364;BME280;36272;59.400;17.982;2023-02-24T07:00:28;99549.16;;;1.79;91.54
50364;BME280;36272;59.400;17.982;2023-02-24T07:05:50;99547.00;;;1.89;91.52
50364;BME280;36272;59.400;17.982;2023-02-24T07:10:57;99541.78;;;1.96;91.63
50364;BME280;36272;59.400;17.982;2023-02-24T07:16:03;99553.16;;;2.03;91.28
50364;BME280;36272;59.400;17.982;2023-02-24T07:21:09;99538.78;;;2.06;90.90
50364;BME280;36272;59.400;17.982;2023-02-24T07:26:18;99533.75;;;2.11;91.54
50364;BME280;36272;59.400;17.982;2023-02-24T07:31:30;99531.91;;;2.12;91.69
50364;BME280;36272;59.400;17.982;2023-02-24T07:36:38;99529.09;;;2.20;91.46
50364;BME280;36272;59.400;17.982;2023-02-24T07:41:50;99519.78;;;2.24;91.36
50364;BME280;36272;59.400;17.982;2023-02-24T07:46:53;99521.66;;;2.30;91.08
50364;BME280;36272;59.400;17.982;2023-02-24T07:51:56;99528.97;;;2.35;90.93
50364;BME280;36272;59.400;17.982;2023-02-24T07:56:58;99526.94;;;2.37;90.53
50364;BME280;36272;59.400;17.982;2023-02-24T08:02:00;99522.50;;;2.37;90.62
50364;BME280;36272;59.400;17.982;2023-02-24T08:07:04;99521.28;;;2.47;90.48
50364;BME280;36272;59.400;17.982;2023-02-24T08:12:19;99512.56;;;2.53;90.56
50364;BME280;36272;59.400;17.982;2023-02-24T08:17:23;99514.81;;;2.56;90.17
50364;BME280;36272;59.400;17.982;2023-02-24T08:22:26;99512.41;;;2.61;90.41
50364;BME280;36272;59.400;17.982;2023-02-24T08:27:36;99512.00;;;2.64;90.15
50364;BME280;36272;59.400;17.982;2023-02-24T08:32:42;99507.13;;;2.68;89.97
50364;BME280;36272;59.400;17.982;2023-02-24T08:37:47;99503.28;;;2.71;90.06
50364;BME280;36272;59.400;17.982;2023-02-24T08:42:49;99497.41;;;2.75;89.94
50364;BME280;36272;59.400;17.982;2023-02-24T08:47:50;99497.81;;;2.79;90.01
50364;BME280;36272;59.400;17.982;2023-02-24T08:52:54;99489.91;;;2.79;89.83
50364;BME280;36272;59.400;17.982;2023-02-24T08:57:56;99488.50;;;2.83;89.95
50364;BME280;36272;59.400;17.982;2023-02-24T09:03:01;99495.81;;;2.81;89.94
50364;BME280;36272;59.400;17.982;2023-02-24T09:08:08;99493.38;;;2.86;90.01
50364;BME280;36272;59.400;17.982;2023-02-24T09:13:10;99488.66;;;2.88;90.21
50364;BME280;36272;59.400;17.982;2023-02-24T09:18:12;99470.41;;;2.93;90.12
50364;BME280;36272;59.400;17.982;2023-02-24T09:23:14;99471.00;;;2.95;90.03
50364;BME280;36272;59.400;17.982;2023-02-24T09:28:21;99462.91;;;3.17;90.44
50364;BME280;36272;59.400;17.982;2023-02-24T09:33:35;99459.41;;;2.96;90.50
50364;BME280;36272;59.400;17.982;2023-02-24T09:38:53;99464.31;;;3.00;90.80
50364;BME280;36272;59.400;17.982;2023-02-24T09:44:12;99455.16;;;3.09;90.58
50364;BME280;36272;59.400;17.982;2023-02-24T09:49:28;99452.72;;;3.14;89.85
50364;BME280;36272;59.400;17.982;2023-02-24T09:54:40;99464.72;;;3.23;89.26
50364;BME280;36272;59.400;17.982;2023-02-24T09:59:59;99450.69;;;3.30;89.11
50364;BME280;36272;59.400;17.982;2023-02-24T10:05:37;99452.91;;;3.33;88.79
50364;BME280;36272;59.400;17.982;2023-02-24T10:10:49;99460.44;;;3.36;88.53
50364;BME280;36272;59.400;17.982;2023-02-24T10:16:10;99444.19;;;3.32;88.36
50364;BME280;36272;59.400;17.982;2023-02-24T10:21:33;99444.75;;;3.41;89.15
50364;BME280;36272;59.400;17.982;2023-02-24T10:26:57;99442.94;;;3.48;88.67
50364;BME280;36272;59.400;17.982;2023-02-24T10:32:18;99440.47;;;3.53;88.80
50364;BME280;36272;59.400;17.982;2023-02-24T10:37:24;99432.34;;;3.62;88.75
50364;BME280;36272;59.400;17.982;2023-02-24T10:42:31;99427.22;;;3.67;88.12
50364;BME280;36272;59.400;17.982;2023-02-24T10:47:33;99427.81;;;3.76;88.21
50364;BME280;36272;59.400;17.982;2023-02-24T10:52:44;99422.91;;;3.79;87.96
50364;BME280;36272;59.400;17.982;2023-02-24T10:58:35;99410.09;;;3.83;88.47
50364;BME280;36272;59.400;17.982;2023-02-24T11:04:01;99402.75;;;3.78;87.69
50364;BME280;36272;59.400;17.982;2023-02-24T11:09:26;99405.41;;;3.78;88.04
50364;BME280;36272;59.400;17.982;2023-02-24T11:14:28;99417.00;;;3.84;87.99
50364;BME280;36272;59.400;17.982;2023-02-24T11:20:00;99399.28;;;3.84;87.97
50364;BME280;36272;59.400;17.982;2023-02-24T11:25:19;99392.13;;;3.92;87.71
50364;BME280;36272;59.400;17.982;2023-02-24T11:30:37;99382.72;;;4.02;87.80
50364;BME280;36272;59.400;17.982;2023-02-24T11:40:51;99376.03;;;4.32;86.93
50364;BME280;36272;59.400;17.982;2023-02-24T11:46:06;99371.09;;;4.42;86.54
50364;BME280;36272;59.400;17.982;2023-02-24T11:56:22;99367.41;;;4.43;86.17
50364;BME280;36272;59.400;17.982;2023-02-24T12:12:20;99358.06;;;4.41;86.51
50364;BME280;36272;59.400;17.982;2023-02-24T12:17:37;99357.00;;;4.49;86.53
50364;BME280;36272;59.400;17.982;2023-02-24T12:23:38;99345.91;;;4.58;86.84
50364;BME280;36272;59.400;17.982;2023-02-24T12:39:13;99336.25;;;4.45;86.56
50364;BME280;36272;59.400;17.982;2023-02-24T13:11:48;99331.84;;;4.00;87.81
50364;BME280;36272;59.400;17.982;2023-02-24T13:32:34;99329.28;;;3.80;88.13
50364;BME280;36272;59.400;17.982;2023-02-24T13:37:38;99335.28;;;3.69;88.06
50364;BME280;36272;59.400;17.982;2023-02-24T13:42:42;99339.97;;;3.60;88.33
50364;BME280;36272;59.400;17.982;2023-02-24T14:12:19;99336.84;;;3.24;90.39
50364;BME280;36272;59.400;17.982;2023-02-24T14:17:30;99336.25;;;3.16;89.85
50364;BME280;36272;59.400;17.982;2023-02-24T14:29:28;99342.34;;;3.16;90.26
50364;BME280;36272;59.400;17.982;2023-02-24T14:53:07;99340.53;;;3.10;90.29
50364;BME280;36272;59.400;17.982;2023-02-24T14:58:33;99345.00;;;3.09;90.41
50364;BME280;36272;59.400;17.982;2023-02-24T15:03:45;99347.84;;;3.08;90.21
50364;BME280;36272;59.400;17.982;2023-02-24T15:08:51;99343.41;;;3.08;89.96
50364;BME280;36272;59.400;17.982;2023-02-24T15:14:01;99346.84;;;3.02;90.16
50364;BME280;36272;59.400;17.982;2023-02-24T15:19:30;99350.09;;;2.97;90.62
50364;BME280;36272;59.400;17.982;2023-02-24T15:24:36;99343.81;;;2.92;90.49
50364;BME280;36272;59.400;17.982;2023-02-24T15:29:42;99342.19;;;2.91;90.23
50364;BME280;36272;59.400;17.982;2023-02-24T15:34:45;99344.00;;;2.90;90.29
50364;BME280;36272;59.400;17.982;2023-02-24T15:39:49;99347.06;;;2.87;90.19
50364;BME280;36272;59.400;17.982;2023-02-24T15:45:04;99353.78;;;2.83;90.40
50364;BME280;36272;59.400;17.982;2023-02-24T15:50:25;99349.53;;;2.82;90.84
50364;BME280;36272;59.400;17.982;2023-02-24T15:55:28;99355.63;;;2.76;90.55
50364;BME280;36272;59.400;17.982;2023-02-24T16:00:30;99351.53;;;2.73;90.46
50364;BME280;36272;59.400;17.982;2023-02-24T16:05:32;99348.69;;;2.68;90.60
50364;BME280;36272;59.400;17.982;2023-02-24T16:10:36;99360.88;;;2.62;90.53
50364;BME280;36272;59.400;17.982;2023-02-24T16:15:40;99359.25;;;2.61;90.69
50364;BME280;36272;59.400;17.982;2023-02-24T16:20:49;99357.63;;;2.60;90.99
50364;BME280;36272;59.400;17.982;2023-02-24T16:25:58;99353.38;;;2.59;90.59
50364;BME280;36272;59.400;17.982;2023-02-24T16:31:00;99365.97;;;2.57;90.75
50364;BME280;36272;59.400;17.982;2023-02-24T16:36:02;99365.75;;;2.52;90.73
50364;BME280;36272;59.400;17.982;2023-02-24T16:41:05;99360.88;;;2.49;90.75
50364;BME280;36272;59.400;17.982;2023-02-24T16:46:13;99360.25;;;2.47;90.80
50364;BME280;36272;59.400;17.982;2023-02-24T16:51:16;99371.03;;;2.38;90.82
50364;BME280;36272;59.400;17.982;2023-02-24T16:56:17;99379.13;;;2.44;91.00
50364;BME280;36272;59.400;17.982;2023-02-24T17:01:20;99369.81;;;2.48;90.83
50364;BME280;36272;59.400;17.982;2023-02-24T17:06:22;99379.56;;;2.47;90.73
50364;BME280;36272;59.400;17.982;2023-02-24T17:11:27;99358.03;;;2.44;90.87
50364;BME280;36272;59.400;17.982;2023-02-24T17:16:29;99381.59;;;2.45;90.83
50364;BME280;36272;59.400;17.982;2023-02-24T17:21:30;99380.75;;;2.45;91.10
50364;BME280;36272;59.400;17.982;2023-02-24T17:26:32;99385.84;;;2.46;90.92
50364;BME280;36272;59.400;17.982;2023-02-24T17:31:34;99376.94;;;2.41;91.00
50364;BME280;36272;59.400;17.982;2023-02-24T17:36:38;99388.28;;;2.34;91.02
50364;BME280;36272;59.400;17.982;2023-02-24T17:41:39;99379.53;;;2.34;91.02
50364;BME280;36272;59.400;17.982;2023-02-24T17:46:47;99385.44;;;2.29;91.57
50364;BME280;36272;59.400;17.982;2023-02-24T17:51:48;99398.81;;;2.28;91.07
50364;BME280;36272;59.400;17.982;2023-02-24T17:56:50;99394.13;;;2.23;91.18
50364;BME280;36272;59.400;17.982;2023-02-24T18:01:53;99392.28;;;2.23;91.56
50364;BME280;36272;59.400;17.982;2023-02-24T18:06:54;99403.47;;;2.19;91.36
50364;BME280;36272;59.400;17.982;2023-02-24T18:11:56;99403.25;;;2.14;91.45
50364;BME280;36272;59.400;17.982;2023-02-24T18:16:58;99404.03;;;2.07;91.30
50364;BME280;36272;59.400;17.982;2023-02-24T18:22:00;99401.78;;;2.04;91.52
50364;BME280;36272;59.400;17.982;2023-02-24T18:27:01;99396.31;;;2.06;91.15
50364;BME280;36272;59.400;17.982;2023-02-24T18:32:03;99402.19;;;2.01;91.41
50364;BME280;36272;59.400;17.982;2023-02-24T18:37:05;99400.16;;;2.03;91.09
50364;BME280;36272;59.400;17.982;2023-02-24T18:42:07;99412.34;;;2.04;91.45
50364;BME280;36272;59.400;17.982;2023-02-24T18:47:14;99419.25;;;2.05;91.38
50364;BME280;36272;59.400;17.982;2023-02-24T18:52:16;99423.28;;;2.01;91.04
50364;BME280;36272;59.400;17.982;2023-02-24T18:57:18;99422.66;;;1.99;91.27
50364;BME280;36272;59.400;17.982;2023-02-24T19:02:19;99423.47;;;1.93;91.29
50364;BME280;36272;59.400;17.982;2023-02-24T19:07:30;99423.47;;;1.93;91.43
50364;BME280;36272;59.400;17.982;2023-02-24T19:12:32;99435.84;;;1.92;91.62
50364;BME280;36272;59.400;17.982;2023-02-24T19:17:34;99440.69;;;1.89;91.19
50364;BME280;36272;59.400;17.982;2023-02-24T19:22:36;99441.09;;;1.86;91.13
50364;BME280;36272;59.400;17.982;2023-02-24T19:27:37;99437.22;;;1.82;91.49
50364;BME280;36272;59.400;17.982;2023-02-24T19:32:39;99437.59;;;1.78;91.42
50364;BME280;36272;59.400;17.982;2023-02-24T19:37:52;99436.97;;;1.76;91.56
50364;BME280;36272;59.400;17.982;2023-02-24T19:42:54;99441.41;;;1.69;91.53
50364;BME280;36272;59.400;17.982;2023-02-24T19:48:04;99437.75;;;1.70;91.29
50364;BME280;36272;59.400;17.982;2023-02-24T19:53:20;99437.13;;;1.68;90.87
50364;BME280;36272;59.400;17.982;2023-02-24T19:58:25;99445.66;;;1.70;91.46
50364;BME280;36272;59.400;17.982;2023-02-24T20:03:26;99445.88;;;1.69;91.00
50364;BME280;36272;59.400;17.982;2023-02-24T20:08:33;99449.31;;;1.69;91.42
50364;BME280;36272;59.400;17.982;2023-02-24T20:13:50;99451.91;;;1.62;91.01
50364;BME280;36272;59.400;17.982;2023-02-24T20:18:56;99452.09;;;1.61;91.48
50364;BME280;36272;59.400;17.982;2023-02-24T20:24:04;99450.28;;;1.61;90.79
50364;BME280;36272;59.400;17.982;2023-02-24T20:29:08;99458.00;;;1.63;91.23
50364;BME280;36272;59.400;17.982;2023-02-24T20:34:12;99459.00;;;1.62;91.13
50364;BME280;36272;59.400;17.982;2023-02-24T20:39:14;99474.81;;;1.62;91.24
50364;BME280;36272;59.400;17.982;2023-02-24T20:44:16;99467.69;;;1.56;91.13
50364;BME280;36272;59.400;17.982;2023-02-24T20:49:27;99471.72;;;1.52;90.67
50364;BME280;36272;59.400;17.982;2023-02-24T20:54:32;99467.41;;;1.44;91.17
50364;BME280;36272;59.400;17.982;2023-02-24T20:59:34;99481.78;;;1.41;91.28
50364;BME280;36272;59.400;17.982;2023-02-24T21:10:10;99486.00;;;1.36;91.57
50364;BME280;36272;59.400;17.982;2023-02-24T21:15:15;99491.25;;;1.36;91.34
50364;BME280;36272;59.400;17.982;2023-02-24T21:20:28;99499.00;;;1.37;91.49
50364;BME280;36272;59.400;17.982;2023-02-24T21:25:30;99498.53;;;1.33;91.23
50364;BME280;36272;59.400;17.982;2023-02-24T21:30:32;99493.28;;;1.33;91.17
50364;BME280;36272;59.400;17.982;2023-02-24T21:35:34;99500.34;;;1.26;91.10
50364;BME280;36272;59.400;17.982;2023-02-24T21:40:36;99491.44;;;1.27;91.00
50364;BME280;36272;59.400;17.982;2023-02-24T21:45:38;99498.63;;;1.18;90.95
50364;BME280;36272;59.400;17.982;2023-02-24T21:50:40;99494.38;;;1.17;91.44
50364;BME280;36272;59.400;17.982;2023-02-24T21:56:04;99487.28;;;1.18;91.66
50364;BME280;36272;59.400;17.982;2023-02-24T22:01:10;99490.88;;;1.10;91.07
50364;BME280;36272;59.400;17.982;2023-02-24T22:06:18;99473.03;;;1.12;90.80
50364;BME280;36272;59.400;17.982;2023-02-24T22:11:52;99479.94;;;1.13;91.24
50364;BME280;36272;59.400;17.982;2023-02-24T22:17:23;99487.63;;;1.08;90.80
50364;BME280;36272;59.400;17.982;2023-02-24T22:22:24;99496.72;;;1.06;91.06
50364;BME280;36272;59.400;17.982;2023-02-24T22:27:27;99483.13;;;1.02;91.10
50364;BME280;36272;59.400;17.982;2023-02-24T22:32:29;99492.91;;;1.08;91.46
50364;BME280;36272;59.400;17.982;2023-02-24T22:37:32;99493.28;;;1.05;91.12
50364;BME280;36272;59.400;17.982;2023-02-24T22:42:33;99495.69;;;1.07;91.29
50364;BME280;36272;59.400;17.982;2023-02-24T22:47:35;99499.38;;;1.12;91.03
50364;BME280;36272;59.400;17.982;2023-02-24T22:52:37;99497.72;;;1.04;91.04
50364;BME280;36272;59.400;17.982;2023-02-24T22:57:38;99496.53;;;1.07;90.98
50364;BME280;36272;59.400;17.982;2023-02-24T23:02:40;99507.44;;;1.04;90.71
50364;BME280;36272;59.400;17.982;2023-02-24T23:07:42;99497.34;;;1.08;90.87
50364;BME280;36272;59.400;17.982;2023-02-24T23:12:45;99499.34;;;1.06;90.54
50364;BME280;36272;59.400;17.982;2023-02-24T23:17:47;99498.91;;;1.02;90.63
50364;BME280;36272;59.400;17.982;2023-02-24T23:22:49;99511.19;;;0.95;90.75
50364;BME280;36272;59.400;17.982;2023-02-24T23:27:51;99501.66;;;0.94;90.38
50364;BME280;36272;59.400;17.982;2023-02-24T23:32:54;99506.06;;;0.86;90.34
50364;BME280;36272;59.400;17.982;2023-02-24T23:37:56;99503.91;;;0.75;90.39
50364;BME280;36272;59.400;17.982;2023-02-24T23:42:59;99504.75;;;0.76;90.53
50364;BME280;36272;59.400;17.982;2023-02-24T23:48:01;99498.84;;;0.73;90.02
50364;BME280;36272;59.400;17.982;2023-02-24T23:53:03;99505.28;;;0.71;90.53
50364;BME280;36272;59.400;17.982;2023-02-24T23:58:05;99505.06;;;0.66;90.16
